Time;durP1;ratioP1;P1;durP2;ratioP2;P2;SDS_P1;SDS_P2;PMS_P1;PMS_P2;Temp;Humidity;BMP_temperature;BMP_pressure;BME280_temperature;BME280_humidity;BME280_pressure;Samples;Min_cycle;Max_cycle;Signal;HPM_P1;HPM_P2
2022/05/04 00:01:55;;;;;;;0.40;0.40;;;11.50;58.70;;;;;;5090414;28;20238;-41
2022/05/04 00:04:22;;;;;;;0.40;0.40;;;11.50;58.60;;;;;;5089316;28;20556;-40
2022/05/04 00:06:50;;;;;;;0.63;0.40;;;11.50;58.60;;;;;;5090093;28;20236;-39
2022/05/04 00:09:17;;;;;;;0.40;0.40;;;11.50;58.50;;;;;;5090689;28;20200;-42
2022/05/04 00:11:45;;;;;;;0.40;0.40;;;11.50;58.50;;;;;;5082478;28;20229;-41
2022/05/04 00:14:13;;;;;;;0.40;0.40;;;11.50;58.60;;;;;;5072617;28;20547;-41
2022/05/04 00:16:40;;;;;;;0.30;0.30;;;11.50;58.60;;;;;;5080622;28;20664;-42
2022/05/04 00:19:08;;;;;;;0.40;0.40;;;11.50;58.70;;;;;;5086220;28;20566;-39
2022/05/04 00:21:35;;;;;;;0.30;0.30;;;11.50;58.70;;;;;;5069127;28;20215;-45
2022/05/04 00:24:02;;;;;;;0.60;0.60;;;11.40;58.70;;;;;;5075944;28;20215;-41
2022/05/04 00:26:29;;;;;;;0.50;0.50;;;11.40;58.80;;;;;;5089445;28;20287;-40
2022/05/04 00:28:58;;;;;;;0.50;0.50;;;11.40;58.80;;;;;;5087256;28;20200;-43
2022/05/04 00:31:25;;;;;;;0.47;0.47;;;11.40;58.80;;;;;;5089186;28;20569;-41
2022/05/04 00:33:52;;;;;;;2.60;0.50;;;11.40;58.80;;;;;;5091437;28;20542;-41
2022/05/04 00:36:19;;;;;;;0.50;0.50;;;11.40;58.90;;;;;;5089826;28;20614;-39
2022/05/04 00:38:47;;;;;;;0.50;0.50;;;11.40;59.00;;;;;;5091656;28;20285;-40
2022/05/04 00:41:14;;;;;;;0.70;0.70;;;11.40;59.10;;;;;;5089606;28;20200;-39
2022/05/04 00:43:41;;;;;;;1.30;0.63;;;11.40;59.20;;;;;;5090511;28;20215;-40
2022/05/04 00:46:10;;;;;;;0.97;0.83;;;11.30;59.20;;;;;;5090391;28;20200;-45
2022/05/04 00:48:37;;;;;;;0.80;0.80;;;11.30;59.30;;;;;;5080408;28;20217;-44
2022/05/04 00:51:05;;;;;;;0.70;0.70;;;11.30;59.40;;;;;;5088589;28;20284;-41
2022/05/04 00:53:32;;;;;;;0.77;0.73;;;11.20;59.30;;;;;;5104445;28;20517;-41
2022/05/04 00:56:01;;;;;;;0.80;0.80;;;11.20;59.40;;;;;;5088229;28;20204;-45
2022/05/04 01:01:15;;;;;;;1.13;1.00;;;11.20;59.50;;;;;;5088284;28;20270;-40
2022/05/04 01:03:42;;;;;;;1.20;0.93;;;11.20;59.50;;;;;;5105314;28;20208;-43
2022/05/04 01:06:09;;;;;;;0.73;0.70;;;11.20;59.60;;;;;;5103461;28;20207;-41
2022/05/04 01:08:37;;;;;;;0.60;0.60;;;11.10;59.60;;;;;;5104894;28;20220;-45
2022/05/04 01:11:04;;;;;;;1.23;0.80;;;11.10;59.80;;;;;;5087963;28;20276;-41
2022/05/04 01:13:32;;;;;;;1.37;0.80;;;11.00;59.80;;;;;;5090299;28;20192;-41
2022/05/04 01:15:59;;;;;;;1.17;0.93;;;11.00;59.80;;;;;;5105046;28;20198;-39
2022/05/04 01:18:28;;;;;;;0.80;0.73;;;11.00;59.90;;;;;;5087918;28;20215;-46
2022/05/04 01:20:55;;;;;;;0.90;0.90;;;11.00;60.00;;;;;;5088298;28;20538;-41
2022/05/04 01:23:23;;;;;;;1.40;0.97;;;10.90;60.10;;;;;;5088820;28;20228;-42
2022/05/04 01:25:53;;;;;;;3.03;1.03;;;10.90;60.30;;;;;;5089476;28;20184;-41
2022/05/04 01:28:20;;;;;;;0.83;0.80;;;10.80;60.30;;;;;;5090054;28;20565;-41
2022/05/04 01:30:48;;;;;;;0.80;0.80;;;10.70;60.40;;;;;;5089244;28;20253;-45
2022/05/04 01:33:15;;;;;;;0.97;0.70;;;10.70;60.60;;;;;;5090286;28;20635;-43
2022/05/04 01:35:42;;;;;;;0.80;0.80;;;10.70;60.60;;;;;;5094062;28;20208;-45
2022/05/04 01:38:09;;;;;;;2.30;0.80;;;10.70;60.80;;;;;;5087095;28;20632;-43
2022/05/04 01:40:38;;;;;;;1.10;1.00;;;10.60;60.80;;;;;;5089804;28;20199;-43
2022/05/04 01:43:05;;;;;;;1.73;1.07;;;10.60;60.90;;;;;;5090227;28;20211;-41
2022/05/04 01:45:32;;;;;;;0.83;0.83;;;10.60;60.90;;;;;;5090249;28;20219;-44
2022/05/04 01:47:59;;;;;;;0.87;0.77;;;10.60;60.90;;;;;;5090044;28;20207;-43
2022/05/04 01:50:26;;;;;;;1.20;0.80;;;10.50;60.80;;;;;;5087657;28;20279;-44
2022/05/04 01:52:53;;;;;;;1.33;0.80;;;10.60;60.80;;;;;;5089828;28;20248;-48
2022/05/04 01:55:22;;;;;;;0.80;0.80;;;10.50;60.50;;;;;;5089632;28;20223;-40
2022/05/04 01:57:50;;;;;;;1.13;1.00;;;10.60;60.50;;;;;;5102980;28;20765;-43
2022/05/04 02:00:18;;;;;;;0.60;0.60;;;10.60;60.50;;;;;;5089015;28;20196;-41
2022/05/04 02:02:45;;;;;;;1.43;0.70;;;10.50;60.40;;;;;;5088301;28;20674;-45
2022/05/04 02:05:13;;;;;;;0.87;0.80;;;10.50;60.30;;;;;;5087774;28;21530;-44
2022/05/04 02:07:40;;;;;;;0.60;0.60;;;10.50;60.20;;;;;;5089664;28;20204;-45
2022/05/04 02:10:10;;;;;;;0.70;0.70;;;10.50;60.10;;;;;;5087596;28;20196;-41
2022/05/04 02:12:37;;;;;;;0.60;0.60;;;10.50;60.10;;;;;;5088489;28;20274;-39
2022/05/04 02:15:08;;;;;;;0.60;0.60;;;10.50;60.10;;;;;;5091750;28;20226;-41
2022/05/04 02:17:35;;;;;;;0.70;0.60;;;10.50;60.00;;;;;;5093521;28;20670;-42
2022/05/04 02:20:03;;;;;;;0.60;0.60;;;10.60;59.90;;;;;;5086221;28;20211;-43
2022/05/04 02:22:30;;;;;;;0.50;0.50;;;10.60;59.80;;;;;;5094177;28;20200;-39
2022/05/04 02:24:57;;;;;;;1.13;0.70;;;10.60;59.80;;;;;;5093410;28;20295;-38
2022/05/04 02:27:25;;;;;;;1.43;0.77;;;10.50;59.70;;;;;;5090308;28;20247;-39
2022/05/04 02:29:52;;;;;;;0.57;0.57;;;10.50;59.60;;;;;;5092146;28;20284;-42
2022/05/04 02:32:20;;;;;;;0.60;0.60;;;10.50;59.70;;;;;;5092588;28;20687;-37
2022/05/04 02:40:16;;;;;;;0.50;0.50;;;10.50;59.70;;;;;;5090984;28;20654;-42
2022/05/04 02:42:43;;;;;;;0.50;0.50;;;10.50;59.70;;;;;;5108245;28;20207;-39
2022/05/04 02:45:11;;;;;;;0.60;0.60;;;10.50;59.70;;;;;;5087980;28;20291;-38
2022/05/04 02:47:40;;;;;;;0.60;0.60;;;10.50;59.60;;;;;;5092045;28;20500;-38
2022/05/04 02:50:09;;;;;;;0.50;0.50;;;10.40;59.60;;;;;;5090582;28;20563;-39
2022/05/04 02:52:36;;;;;;;1.20;0.70;;;10.40;59.60;;;;;;5090759;28;20232;-39
2022/05/04 02:55:03;;;;;;;0.67;0.67;;;10.40;59.70;;;;;;5092308;28;20197;-40
2022/05/04 02:57:30;;;;;;;0.60;0.60;;;10.50;59.70;;;;;;5092337;28;20253;-41
2022/05/04 02:59:58;;;;;;;0.60;0.60;;;10.40;59.70;;;;;;5090928;28;20219;-39
2022/05/04 03:02:27;;;;;;;0.50;0.50;;;10.40;59.70;;;;;;5092189;28;20695;-39
2022/05/04 03:04:56;;;;;;;1.27;0.67;;;10.40;59.70;;;;;;5088000;28;20209;-41
2022/05/04 03:07:23;;;;;;;1.03;0.70;;;10.40;59.70;;;;;;5088200;28;20215;-40
2022/05/04 03:09:50;;;;;;;0.70;0.70;;;10.40;59.80;;;;;;5090085;28;20197;-37
2022/05/04 03:12:18;;;;;;;0.60;0.60;;;10.40;59.90;;;;;;5092223;28;20199;-42
2022/05/04 03:14:45;;;;;;;0.50;0.50;;;10.40;59.90;;;;;;5091877;28;20215;-38
2022/05/04 03:17:12;;;;;;;0.63;0.50;;;10.40;59.80;;;;;;5106575;28;20212;-40
2022/05/04 03:19:39;;;;;;;0.77;0.60;;;10.50;60.50;;;;;;5090078;28;20711;-40
2022/05/04 03:22:08;;;;;;;0.63;0.60;;;10.50;59.80;;;;;;5091678;28;20256;-42
2022/05/04 03:24:37;;;;;;;1.53;1.17;;;10.50;59.90;;;;;;5091154;28;20208;-39
2022/05/04 03:27:04;;;;;;;0.87;0.80;;;10.40;59.70;;;;;;5092076;28;20214;-38
2022/05/04 03:29:31;;;;;;;1.33;0.80;;;10.40;59.70;;;;;;5089009;28;20203;-39
2022/05/04 03:31:59;;;;;;;0.93;0.87;;;10.40;59.60;;;;;;5079161;28;20214;-39
2022/05/04 03:34:26;;;;;;;0.80;0.70;;;10.40;59.60;;;;;;5089766;28;20191;-39
2022/05/04 03:36:54;;;;;;;0.70;0.63;;;10.40;59.60;;;;;;5107490;28;20204;-43
2022/05/04 03:39:22;;;;;;;0.80;0.70;;;10.50;59.60;;;;;;5091440;28;20193;-42
2022/05/04 03:41:49;;;;;;;0.90;0.80;;;10.50;59.50;;;;;;5087703;28;20261;-41
2022/05/04 03:44:17;;;;;;;0.80;0.80;;;10.60;59.50;;;;;;5091379;28;20685;-40
2022/05/04 03:46:46;;;;;;;2.27;1.23;;;10.50;59.40;;;;;;5090870;28;20199;-43
2022/05/04 03:49:14;;;;;;;1.07;1.00;;;10.60;59.60;;;;;;5087605;28;20700;-41
2022/05/04 03:51:42;;;;;;;1.17;0.97;;;10.40;59.50;;;;;;5086303;28;20220;-40
2022/05/04 03:54:10;;;;;;;1.63;1.20;;;10.30;59.60;;;;;;5091441;28;20193;-40
2022/05/04 03:56:39;;;;;;;0.90;0.73;;;10.30;59.80;;;;;;5106412;28;20245;-40
2022/05/04 03:59:07;;;;;;;1.37;1.00;;;10.30;59.80;;;;;;5090110;28;20206;-46
2022/05/04 04:01:35;;;;;;;1.07;0.87;;;10.30;59.90;;;;;;5106355;28;20574;-45
2022/05/04 04:04:02;;;;;;;0.93;0.90;;;10.30;59.70;;;;;;5089398;28;20232;-39
2022/05/04 04:06:30;;;;;;;0.70;0.70;;;10.30;59.60;;;;;;5090128;28;20203;-46
2022/05/04 04:08:57;;;;;;;0.70;0.70;;;10.30;59.30;;;;;;5091916;28;20315;-42
2022/05/04 04:11:24;;;;;;;1.00;0.90;;;10.40;59.20;;;;;;5091413;28;20199;-42
2022/05/04 04:13:52;;;;;;;1.13;0.60;;;10.40;59.00;;;;;;5091567;28;20206;-39
2022/05/04 04:16:20;;;;;;;0.63;0.60;;;10.50;58.90;;;;;;5091236;28;20199;-40
2022/05/04 04:18:47;;;;;;;1.50;0.70;;;10.50;58.70;;;;;;5105868;28;20205;-50
2022/05/04 04:23:58;;;;;;;0.97;0.80;;;10.60;58.50;;;;;;5089728;28;20218;-46
2022/05/04 04:26:25;;;;;;;0.70;0.70;;;10.60;58.40;;;;;;5089300;28;20205;-45
2022/05/04 04:28:54;;;;;;;0.83;0.83;;;10.60;58.40;;;;;;5090421;28;20209;-41
2022/05/04 04:31:21;;;;;;;0.70;0.70;;;10.70;58.30;;;;;;5082232;28;20196;-40
2022/05/04 04:33:48;;;;;;;0.70;0.70;;;10.70;58.20;;;;;;5084708;28;20308;-39
2022/05/04 04:36:15;;;;;;;0.70;0.70;;;10.70;58.00;;;;;;5087916;28;20326;-40
2022/05/04 04:38:43;;;;;;;0.70;0.50;;;10.80;57.90;;;;;;5089475;28;20210;-38
2022/05/04 04:41:10;;;;;;;0.73;0.73;;;10.80;57.70;;;;;;5088672;28;20576;-42
2022/05/04 04:43:37;;;;;;;0.90;0.90;;;10.80;57.50;;;;;;5090770;28;20203;-42
2022/05/04 04:46:06;;;;;;;0.87;0.87;;;10.80;57.40;;;;;;5090510;28;20215;-44
2022/05/04 04:48:33;;;;;;;0.80;0.80;;;10.80;57.20;;;;;;5090706;28;20204;-40
2022/05/04 04:51:00;;;;;;;0.90;0.73;;;10.80;57.00;;;;;;5083865;28;20664;-41
2022/05/04 04:53:28;;;;;;;2.00;0.87;;;10.80;56.80;;;;;;5087834;28;20195;-41
2022/05/04 04:55:55;;;;;;;1.20;1.20;;;10.80;56.70;;;;;;5090018;28;20261;-46
2022/05/04 04:58:22;;;;;;;1.20;1.10;;;10.80;56.60;;;;;;5090447;28;20311;-42
2022/05/04 05:00:49;;;;;;;1.50;1.10;;;10.80;56.50;;;;;;5087912;28;20200;-40
2022/05/04 05:03:18;;;;;;;2.17;1.40;;;10.80;56.30;;;;;;5090691;28;21000;-45
2022/05/04 05:05:45;;;;;;;1.50;1.40;;;10.80;56.10;;;;;;5088010;28;20247;-41
2022/05/04 05:08:14;;;;;;;2.13;1.40;;;10.70;55.70;;;;;;5090560;28;20199;-44
2022/05/04 05:10:41;;;;;;;1.20;1.10;;;10.70;55.60;;;;;;5101102;28;20209;-43
2022/05/04 05:13:09;;;;;;;1.63;1.20;;;10.70;55.50;;;;;;5089019;28;20202;-39
2022/05/04 05:18:24;;;;;;;1.13;0.97;;;10.70;55.20;;;;;;5086473;28;20279;-40
2022/05/04 05:20:51;;;;;;;0.90;0.90;;;10.70;55.70;;;;;;5083426;28;20218;-39
2022/05/04 05:23:19;;;;;;;1.00;0.67;;;10.70;55.50;;;;;;5090425;28;20248;-39
2022/05/04 05:25:47;;;;;;;1.00;0.90;;;10.70;54.50;;;;;;5089357;28;20351;-39
2022/05/04 05:28:14;;;;;;;1.13;0.70;;;10.70;54.20;;;;;;5090015;28;20192;-39
2022/05/04 05:30:42;;;;;;;1.20;0.80;;;10.70;53.90;;;;;;5085306;28;20204;-40
2022/05/04 05:33:09;;;;;;;0.67;0.67;;;10.80;53.70;;;;;;5080108;28;20203;-40
2022/05/04 05:35:38;;;;;;;0.83;0.80;;;10.80;53.60;;;;;;5087785;28;20214;-39
2022/05/04 05:38:05;;;;;;;1.20;0.80;;;10.80;53.50;;;;;;5089894;28;20200;-42
2022/05/04 05:40:33;;;;;;;1.47;0.90;;;10.90;53.30;;;;;;5088800;28;20230;-40
2022/05/04 05:43:00;;;;;;;1.17;0.80;;;10.80;53.00;;;;;;5080946;28;20217;-41
2022/05/04 05:45:27;;;;;;;0.70;0.70;;;10.90;53.10;;;;;;5089707;28;20584;-40
2022/05/04 05:47:54;;;;;;;1.90;0.87;;;10.90;53.00;;;;;;5094637;28;20204;-41
2022/05/04 05:50:22;;;;;;;0.67;0.50;;;10.90;52.80;;;;;;5092041;28;20560;-39
2022/05/04 05:52:50;;;;;;;1.33;0.80;;;10.90;52.90;;;;;;5092740;28;20192;-40
2022/05/04 05:55:17;;;;;;;0.80;0.70;;;10.90;52.90;;;;;;5092304;28;20207;-38
2022/05/04 05:57:44;;;;;;;1.17;0.80;;;11.00;53.00;;;;;;5093109;28;20233;-38
2022/05/04 06:00:13;;;;;;;0.90;0.90;;;11.00;52.90;;;;;;5086860;28;20207;-39
2022/05/04 06:02:40;;;;;;;0.93;0.93;;;11.10;53.00;;;;;;5092807;28;20655;-40
2022/05/04 06:05:08;;;;;;;1.37;0.77;;;11.10;52.90;;;;;;5107371;28;20380;-38
2022/05/04 06:07:36;;;;;;;0.70;0.70;;;11.20;52.80;;;;;;5092399;28;20598;-39
2022/05/04 06:10:07;;;;;;;0.70;0.70;;;11.20;52.80;;;;;;5093401;28;20610;-38
2022/05/04 06:12:34;;;;;;;3.40;0.80;;;11.30;52.80;;;;;;5093807;28;20648;-40
2022/05/04 06:15:01;;;;;;;1.00;0.90;;;11.30;52.70;;;;;;5092346;28;20261;-41
2022/05/04 06:17:28;;;;;;;0.90;0.90;;;11.20;52.50;;;;;;5089182;28;20210;-38
2022/05/04 06:19:56;;;;;;;0.80;0.70;;;11.30;52.60;;;;;;5102798;28;20538;-41
2022/05/04 06:22:23;;;;;;;1.00;0.83;;;11.30;52.50;;;;;;5108673;28;20293;-39
2022/05/04 06:24:50;;;;;;;0.70;0.70;;;11.40;52.50;;;;;;5092920;28;20219;-40
2022/05/04 06:27:19;;;;;;;1.03;0.57;;;11.40;52.40;;;;;;5091535;28;20258;-40
2022/05/04 06:35:15;;;;;;;1.13;0.80;;;11.60;52.50;;;;;;5086666;28;20191;-41
2022/05/04 06:37:42;;;;;;;0.70;0.70;;;11.70;52.50;;;;;;5092382;28;20265;-39
2022/05/04 06:40:10;;;;;;;1.47;0.70;;;11.70;52.40;;;;;;5087139;28;20610;-43
2022/05/04 06:42:39;;;;;;;0.87;0.87;;;11.80;52.40;;;;;;5092941;28;20209;-41
2022/05/04 06:45:07;;;;;;;0.70;0.70;;;11.90;52.50;;;;;;5092744;28;20727;-41
2022/05/04 06:47:35;;;;;;;1.23;0.80;;;11.90;52.40;;;;;;5091571;28;20211;-43
2022/05/04 06:50:04;;;;;;;0.60;0.60;;;12.00;52.40;;;;;;5090397;28;20198;-43
2022/05/04 06:52:32;;;;;;;0.73;0.73;;;12.00;52.40;;;;;;5088387;28;20291;-44
2022/05/04 06:54:59;;;;;;;0.80;0.80;;;12.10;52.50;;;;;;5079969;28;20219;-41
2022/05/04 06:57:27;;;;;;;1.30;0.73;;;12.20;52.50;;;;;;5082261;28;20232;-40
2022/05/04 06:59:57;;;;;;;2.00;0.70;;;12.20;52.30;;;;;;5082795;28;20718;-42
2022/05/04 07:02:24;;;;;;;2.40;0.80;;;12.20;52.10;;;;;;5084036;28;20196;-40
2022/05/04 07:04:52;;;;;;;1.10;0.90;;;12.20;52.00;;;;;;5089995;28;20708;-42
2022/05/04 07:07:19;;;;;;;0.87;0.80;;;12.20;52.00;;;;;;5089569;28;20205;-42
2022/05/04 07:09:46;;;;;;;0.97;0.90;;;12.20;52.00;;;;;;5090530;28;20195;-45
2022/05/04 07:12:13;;;;;;;0.90;0.70;;;12.30;52.00;;;;;;5089628;28;20412;-40
2022/05/04 07:14:41;;;;;;;1.27;0.70;;;12.30;52.00;;;;;;5084921;28;20568;-45
2022/05/04 07:17:09;;;;;;;0.60;0.60;;;12.40;52.10;;;;;;5080669;28;20196;-41
2022/05/04 07:19:36;;;;;;;4.00;0.90;;;12.50;51.90;;;;;;5095826;28;20220;-45
2022/05/04 07:22:04;;;;;;;2.13;0.90;;;12.60;51.80;;;;;;5092546;28;20836;-43
2022/05/04 07:24:31;;;;;;;1.53;0.73;;;12.60;51.50;;;;;;5091815;28;20610;-47
2022/05/04 07:26:58;;;;;;;0.90;0.73;;;12.70;51.20;;;;;;5084898;28;20228;-44
2022/05/04 07:29:25;;;;;;;1.83;1.00;;;12.70;51.00;;;;;;5079827;28;20192;-40
2022/05/04 07:31:53;;;;;;;1.00;0.90;;;12.80;50.90;;;;;;5085388;28;20675;-43
2022/05/04 07:34:22;;;;;;;2.40;0.90;;;12.80;51.00;;;;;;5085212;28;20749;-43
2022/05/04 07:36:49;;;;;;;1.77;0.80;;;12.90;50.90;;;;;;5087690;28;20649;-42
2022/05/04 07:44:42;;;;;;;0.60;0.60;;;13.20;50.90;;;;;;5087298;28;20185;-40
2022/05/04 07:47:09;;;;;;;1.83;0.60;;;13.20;50.60;;;;;;5082279;28;20193;-45
2022/05/04 07:49:38;;;;;;;1.10;0.60;;;13.30;50.50;;;;;;5085957;28;20193;-44
2022/05/04 07:52:05;;;;;;;2.13;0.70;;;13.40;50.50;;;;;;5085513;28;20219;-41
2022/05/04 07:54:33;;;;;;;0.80;0.73;;;13.40;50.20;;;;;;5085276;28;20193;-41
2022/05/04 07:57:00;;;;;;;3.60;0.60;;;13.40;50.10;;;;;;5076637;28;20764;-40
2022/05/04 07:59:27;;;;;;;0.60;0.60;;;13.50;50.00;;;;;;5067222;28;20498;-42
2022/05/04 08:04:40;;;;;;;1.20;0.80;;;13.60;49.70;;;;;;5066289;28;20197;-42
2022/05/04 08:07:07;;;;;;;0.70;0.70;;;13.70;49.40;;;;;;5068593;28;20232;-40
2022/05/04 08:09:36;;;;;;;0.60;0.60;;;13.80;49.40;;;;;;5056439;28;20194;-45
2022/05/04 08:12:06;;;;;;;1.97;0.77;;;13.80;49.00;;;;;;5065947;28;20194;-41
2022/05/04 08:14:33;;;;;;;1.30;0.90;;;13.80;48.70;;;;;;5046040;28;20351;-43
2022/05/04 08:17:00;;;;;;;0.77;0.70;;;13.90;48.70;;;;;;5043723;28;20205;-42
2022/05/04 08:19:28;;;;;;;0.83;0.83;;;14.00;48.60;;;;;;5044787;28;20304;-41
2022/05/04 08:21:56;;;;;;;1.03;0.77;;;14.10;48.60;;;;;;5041669;28;20298;-43
2022/05/04 08:24:24;;;;;;;1.50;0.87;;;14.20;48.50;;;;;;5063350;28;20396;-39
2022/05/04 08:26:51;;;;;;;0.40;0.40;;;14.30;48.30;;;;;;5069027;28;20231;-44
2022/05/04 08:29:18;;;;;;;1.10;0.60;;;14.50;48.30;;;;;;5067541;28;20201;-44
2022/05/04 08:31:45;;;;;;;0.47;0.47;;;14.50;48.00;;;;;;5069218;28;20199;-45
2022/05/04 08:34:13;;;;;;;0.97;0.60;;;14.60;47.80;;;;;;5049425;28;20210;-42
2022/05/04 08:36:40;;;;;;;0.60;0.60;;;14.70;47.70;;;;;;5069907;28;20629;-41
2022/05/04 08:39:10;;;;;;;2.73;0.70;;;14.80;47.70;;;;;;5050726;28;20203;-40
2022/05/04 08:41:40;;;;;;;0.70;0.60;;;14.90;47.70;;;;;;5069307;28;20195;-43
2022/05/04 08:44:09;;;;;;;1.30;0.90;;;15.00;47.10;;;;;;5066566;28;20191;-40
2022/05/04 08:46:38;;;;;;;0.80;0.80;;;15.10;46.50;;;;;;5045936;28;20222;-39
2022/05/04 08:49:06;;;;;;;0.80;0.80;;;15.10;45.90;;;;;;5069593;28;20196;-41
2022/05/04 08:51:36;;;;;;;1.50;0.70;;;15.10;45.70;;;;;;5068449;28;20283;-39
2022/05/04 08:54:04;;;;;;;0.77;0.77;;;15.20;45.80;;;;;;5049324;28;20299;-42
2022/05/04 08:56:33;;;;;;;0.60;0.60;;;15.30;45.80;;;;;;5046007;28;20242;-44
2022/05/04 08:59:02;;;;;;;0.70;0.67;;;15.30;45.70;;;;;;5093793;28;20290;-40
2022/05/04 09:01:31;;;;;;;0.60;0.60;;;15.30;45.80;;;;;;5086866;28;20627;-40
2022/05/04 09:03:59;;;;;;;0.60;0.57;;;15.30;45.90;;;;;;5088007;28;20201;-41
2022/05/04 09:06:27;;;;;;;0.43;0.43;;;15.30;45.90;;;;;;5088307;28;20211;-43
2022/05/04 09:09:03;;;;;;;0.60;0.60;;;15.40;45.70;;;;;;5088909;28;20307;-44
2022/05/04 09:11:32;;;;;;;0.80;0.80;;;15.40;45.60;;;;;;5082590;28;20191;-40
2022/05/04 09:14:07;;;;;;;0.53;0.50;;;15.40;45.00;;;;;;5089111;28;20666;-42
2022/05/04 09:16:34;;;;;;;1.20;0.70;;;15.50;44.90;;;;;;5084466;28;20196;-41
2022/05/04 09:19:04;;;;;;;1.40;0.90;;;15.50;44.50;;;;;;5093153;28;20211;-40
2022/05/04 09:21:32;;;;;;;1.17;0.90;;;15.50;44.10;;;;;;5077349;28;20210;-44
2022/05/04 09:23:59;;;;;;;0.90;0.90;;;15.60;44.50;;;;;;5089528;28;20234;-39
2022/05/04 09:26:27;;;;;;;0.60;0.60;;;15.70;44.20;;;;;;5088027;28;20223;-42
2022/05/04 09:28:59;;;;;;;0.70;0.70;;;15.70;43.90;;;;;;5089762;28;20655;-42
2022/05/04 09:31:30;;;;;;;0.73;0.73;;;15.70;43.60;;;;;;5084891;28;20191;-48
2022/05/04 09:33:59;;;;;;;0.73;0.73;;;15.80;42.80;;;;;;5082705;28;20546;-39
2022/05/04 09:36:34;;;;;;;3.00;0.90;;;15.80;42.50;;;;;;5087990;28;20200;-44
2022/05/04 09:47:20;;;;;;;0.90;0.90;;;15.80;42.50;;;;;;5078680;28;20239;-41
2022/05/04 09:49:48;;;;;;;1.67;1.10;;;15.80;42.40;;;;;;5087415;28;20700;-43
2022/05/04 09:52:17;;;;;;;1.37;0.97;;;15.90;42.50;;;;;;5088846;28;20214;-44
2022/05/04 09:54:46;;;;;;;0.77;0.70;;;15.90;42.50;;;;;;5084618;28;20210;-45
2022/05/04 09:57:14;;;;;;;0.70;0.70;;;15.80;42.40;;;;;;5103371;28;20231;-45
2022/05/04 09:59:43;;;;;;;0.53;0.53;;;15.80;42.50;;;;;;5101425;28;20557;-42
2022/05/04 10:02:13;;;;;;;0.77;0.63;;;15.90;42.60;;;;;;5087312;28;20213;-43
2022/05/04 10:04:43;;;;;;;0.60;0.60;;;15.90;43.20;;;;;;5086836;28;20211;-44
2022/05/04 10:07:11;;;;;;;0.77;0.77;;;16.00;42.70;;;;;;5090385;28;20208;-44
2022/05/04 10:09:39;;;;;;;0.60;0.60;;;16.10;42.60;;;;;;5090141;28;20205;-46
2022/05/04 10:12:08;;;;;;;2.60;0.70;;;16.20;42.70;;;;;;5078870;28;20227;-44
2022/05/04 10:14:35;;;;;;;0.83;0.83;;;16.30;42.40;;;;;;5089533;28;20245;-44
2022/05/04 10:17:07;;;;;;;0.80;0.80;;;16.40;42.20;;;;;;5089866;28;20210;-43
2022/05/04 10:19:44;;;;;;;0.70;0.70;;;16.50;41.90;;;;;;5087446;28;20636;-43
2022/05/04 10:22:17;;;;;;;0.80;0.80;;;16.50;41.90;;;;;;5090173;28;20192;-41
2022/05/04 10:24:45;;;;;;;0.60;0.60;;;16.60;41.70;;;;;;5081707;28;20596;-40
2022/05/04 10:27:21;;;;;;;0.80;0.80;;;16.60;41.40;;;;;;5089857;28;20214;-43
2022/05/04 10:32:36;;;;;;;0.60;0.60;;;16.50;40.70;;;;;;5090538;28;20211;-42
2022/05/04 10:35:23;;;;;;;0.90;0.83;;;16.60;41.00;;;;;;5088479;28;20196;-43
2022/05/04 10:38:13;;;;;;;1.13;0.80;;;16.60;40.70;;;;;;5092486;28;20199;-42
2022/05/04 10:40:44;;;;;;;0.80;0.80;;;16.60;40.50;;;;;;5092923;28;20195;-44
2022/05/04 10:43:13;;;;;;;0.60;0.60;;;16.70;40.50;;;;;;5093047;28;20204;-41
2022/05/04 10:45:42;;;;;;;0.83;0.80;;;16.70;39.60;;;;;;5092547;28;20222;-45
2022/05/04 10:48:28;;;;;;;0.87;0.87;;;16.70;39.60;;;;;;5093393;28;20204;-44
2022/05/04 10:50:59;;;;;;;0.70;0.70;;;16.70;39.80;;;;;;5089110;28;20207;-44
2022/05/04 10:53:40;;;;;;;0.70;0.70;;;16.80;40.10;;;;;;5093324;28;20193;-41
2022/05/04 10:56:09;;;;;;;1.00;0.90;;;17.00;40.70;;;;;;5090182;28;20298;-40
2022/05/04 10:58:39;;;;;;;1.10;1.10;;;17.10;41.00;;;;;;5092361;28;20195;-40
2022/05/04 11:01:11;;;;;;;1.10;1.10;;;17.10;41.00;;;;;;5091978;28;20215;-44
2022/05/04 11:03:48;;;;;;;0.90;0.90;;;17.20;41.30;;;;;;5104822;28;20647;-40
2022/05/04 11:06:24;;;;;;;0.80;0.80;;;17.30;41.40;;;;;;5082046;28;20311;-43
2022/05/04 11:08:55;;;;;;;1.10;1.00;;;17.40;41.50;;;;;;5092892;28;20211;-43
2022/05/04 11:11:22;;;;;;;1.00;0.80;;;17.50;41.30;;;;;;5092229;28;20199;-46
2022/05/04 11:13:49;;;;;;;1.43;0.80;;;17.60;41.10;;;;;;5089053;28;20246;-41
2022/05/04 11:16:17;;;;;;;0.80;0.80;;;17.60;41.00;;;;;;5091067;28;20214;-41
2022/05/04 11:18:44;;;;;;;1.40;0.80;;;17.70;41.00;;;;;;5092749;28;20210;-43
2022/05/04 11:21:12;;;;;;;0.90;0.90;;;17.80;40.90;;;;;;5086202;28;20572;-41
2022/05/04 11:23:39;;;;;;;2.00;1.40;;;17.90;40.70;;;;;;5092663;28;20202;-43
2022/05/04 11:26:16;;;;;;;0.97;0.97;;;17.90;40.20;;;;;;5091988;28;20223;-42
2022/05/04 11:28:43;;;;;;;1.30;0.90;;;18.00;40.30;;;;;;5092455;28;20257;-42
2022/05/04 11:31:10;;;;;;;0.60;0.60;;;18.10;40.30;;;;;;5091863;28;20653;-40
2022/05/04 11:33:37;;;;;;;0.70;0.70;;;18.20;40.20;;;;;;5092540;28;20203;-44
2022/05/04 11:36:05;;;;;;;0.60;0.60;;;18.30;40.00;;;;;;5084055;28;20196;-42
2022/05/04 11:38:32;;;;;;;0.82;0.70;;;18.30;39.90;;;;;;5083696;28;20200;-41
2022/05/04 11:41:02;;;;;;;1.27;0.80;;;18.40;39.70;;;;;;5087779;28;20210;-44
2022/05/04 11:43:34;;;;;;;0.83;0.83;;;18.40;39.50;;;;;;5086334;28;20217;-45
2022/05/04 11:46:06;;;;;;;0.70;0.70;;;18.50;39.60;;;;;;5091766;28;20209;-48
2022/05/04 11:48:34;;;;;;;0.60;0.60;;;18.50;39.50;;;;;;5095378;28;20238;-44
2022/05/04 11:51:01;;;;;;;0.70;0.70;;;18.70;39.80;;;;;;5089392;28;20189;-44
2022/05/04 11:53:29;;;;;;;0.80;0.80;;;18.70;39.60;;;;;;5092209;28;20209;-45
2022/05/04 11:55:59;;;;;;;0.67;0.67;;;18.70;39.00;;;;;;5090292;28;20251;-46
2022/05/04 11:58:27;;;;;;;0.50;0.50;;;18.70;39.00;;;;;;5084616;28;20225;-40
2022/05/04 12:00:56;;;;;;;0.82;0.75;;;18.60;38.90;;;;;;5097544;28;20213;-43
2022/05/04 12:03:25;;;;;;;1.20;1.10;;;18.70;38.80;;;;;;5085461;28;20195;-40
2022/05/04 12:05:55;;;;;;;1.40;0.80;;;18.70;38.80;;;;;;5084950;28;20215;-42
2022/05/04 12:08:23;;;;;;;0.70;0.70;;;18.80;38.90;;;;;;5097656;28;20611;-40
2022/05/04 12:10:51;;;;;;;0.70;0.60;;;18.80;38.90;;;;;;5090546;28;20205;-41
2022/05/04 12:13:23;;;;;;;1.05;0.63;;;18.90;39.00;;;;;;5089776;28;20211;-41
2022/05/04 12:15:52;;;;;;;0.70;0.70;;;18.90;39.00;;;;;;5086248;28;20749;-40
2022/05/04 12:18:21;;;;;;;1.00;0.80;;;18.90;38.90;;;;;;5087824;28;20230;-42
2022/05/04 12:20:49;;;;;;;0.77;0.77;;;18.90;39.20;;;;;;5086308;28;20197;-40
2022/05/04 12:23:16;;;;;;;0.70;0.70;;;18.80;38.90;;;;;;5103100;28;20671;-40
2022/05/04 12:25:44;;;;;;;1.05;0.93;;;18.90;39.00;;;;;;5096825;28;20206;-41
2022/05/04 12:28:12;;;;;;;0.90;0.90;;;18.90;39.00;;;;;;5090362;28;20211;-41
2022/05/04 12:33:32;;;;;;;0.83;0.70;;;18.80;39.00;;;;;;5084810;28;20230;-45
2022/05/04 12:36:02;;;;;;;0.77;0.77;;;18.90;39.00;;;;;;5077147;28;20192;-42
2022/05/04 12:38:29;;;;;;;0.70;0.70;;;18.90;39.10;;;;;;5085492;28;20614;-43
2022/05/04 12:40:57;;;;;;;1.40;0.60;;;18.90;39.20;;;;;;5090669;28;20222;-40
2022/05/04 12:43:26;;;;;;;0.75;0.75;;;19.00;39.30;;;;;;5080566;28;20199;-45
2022/05/04 12:45:56;;;;;;;0.82;0.80;;;19.10;39.50;;;;;;5089440;28;20279;-43
2022/05/04 12:48:26;;;;;;;1.38;0.90;;;19.20;39.60;;;;;;5090770;28;20676;-44
2022/05/04 12:50:55;;;;;;;0.77;0.77;;;19.20;39.30;;;;;;5089101;28;20222;-42
2022/05/04 12:53:25;;;;;;;0.60;0.60;;;19.20;39.00;;;;;;5090130;28;20211;-42
2022/05/04 12:58:37;;;;;;;1.15;0.77;;;19.10;38.90;;;;;;5085361;28;20195;-41
2022/05/04 13:01:05;;;;;;;0.70;0.57;;;19.10;38.80;;;;;;5084895;28;20222;-43
2022/05/04 13:03:32;;;;;;;0.70;0.70;;;19.10;38.60;;;;;;5090548;28;20693;-42
2022/05/04 13:06:01;;;;;;;0.73;0.73;;;19.10;38.70;;;;;;5095247;28;20212;-42
2022/05/04 13:08:29;;;;;;;0.82;0.77;;;19.10;38.80;;;;;;5084438;28;20226;-42
2022/05/04 13:10:56;;;;;;;0.73;0.73;;;19.10;38.70;;;;;;5099272;28;20214;-42
2022/05/04 13:13:25;;;;;;;0.70;0.70;;;19.10;38.50;;;;;;5105644;28;20208;-41
2022/05/04 13:15:53;;;;;;;0.70;0.57;;;19.10;38.20;;;;;;5090235;28;20202;-41
2022/05/04 13:18:20;;;;;;;0.80;0.80;;;19.10;37.70;;;;;;5091000;28;20202;-44
2022/05/04 13:20:48;;;;;;;0.70;0.70;;;19.00;37.70;;;;;;5086118;28;20559;-42
2022/05/04 13:23:17;;;;;;;0.70;0.70;;;19.00;37.90;;;;;;5083534;28;20199;-44
2022/05/04 13:25:44;;;;;;;0.70;0.70;;;19.00;38.00;;;;;;5088689;28;20290;-45
2022/05/04 13:28:12;;;;;;;0.73;0.73;;;19.00;38.10;;;;;;5088191;28;20231;-41
2022/05/04 13:30:40;;;;;;;0.75;0.75;;;19.00;38.10;;;;;;5089699;28;20784;-40
2022/05/04 13:33:08;;;;;;;0.55;0.55;;;19.00;38.00;;;;;;5089274;28;20217;-41
2022/05/04 13:35:36;;;;;;;0.70;0.70;;;19.10;37.70;;;;;;5081294;28;20206;-42
2022/05/04 13:38:04;;;;;;;0.80;0.80;;;19.00;37.50;;;;;;5081051;28;20187;-46